Ducktown, TN (37326)

10:01 PM EST on February 12, 2016 (GMT -0500)
Copperhill Airport 1A3 | | Change Station
CLOSE
Current Station
Personal Weather Station
Location: Copperhill, TN
Elevation: 1800 ft
Nearby Weather Stations

Elev 1800 ft 35.02 °N, 84.34 °W | Updated 30 seconds ago

Mostly Cloudy
Mostly Cloudy
34.2 °F
Feels Like 27 °F
N
8.3
Wind Variable Wind from WNW

Today
High -- | Low -- °F
--% Chance of Precip.
Yesterday
High -- | Low -- °F
Precip. -- in
Pressure 30.25 in
Visibility 10.0 miles
Clouds Overcast 3600 ft
Windchill 27 °F
Dew Point 27 °F
Humidity 74%
Rainfall 0.11 in
Snow Depth Not available.
7:27 AM 6:16 PM
Waxing Crescent, 26% visible
METAR KRZR 130255Z AUTO 36006G12KT 10SM OVC036 03/M03 A3025 RMK A01
Pressure 30.25 in
Visibility 10.0 miles
Clouds Overcast 3600 ft
Windchill 27 °F
Dew Point 27 °F
Humidity 74%
Rainfall 0.11 in
Snow Depth Not available.
7:27 AM 6:16 PM
Waxing Crescent, 26% visible
METAR KRZR 130255Z AUTO 36006G12KT 10SM OVC036 03/M03 A3025 RMK A01

10-Day Weather Forecast

Almanac

Astronomy

Feb. 12, 2016 Rise Set
Actual Time
Civil Twilight
Nautical Twilight
Astronomical Twilight
Moon
Length of Visible Light
Length of Day
Tomorrow will be .
, % of the Moon is Illuminated

Today's Extremes

State Highs State Lows

Community

WunderPhotos

Upload Photos

1,892,478 photos uploaded!

WunderBlog® & News

Nearby

Air Quality

  Air Quality AQ Index Pollutant
Not available.

Snow Depth

Station Depth Elevation

Earthquake Activity

City Distance Mag. Time & Date
Minimum magnitude displayed is 2.5.

Coastal Water Temperatures

Place Temperature

Stations

Nearby Weather Stations

Station Location Temp. Windchill Dew Point Humidity Wind Precip. Elev Updated Type
                   

Watches & Warnings

There are currently no watches in effect.